createdAt,value
2023-03-04T00:00:15.866Z,1.50
2023-03-04T00:02:17.725Z,1.40
2023-03-04T00:04:19.517Z,1.50
2023-03-04T00:06:21.296Z,1.50
2023-03-04T00:08:23.018Z,1.50
2023-03-04T00:10:24.875Z,1.40
2023-03-04T00:12:27.182Z,1.50
2023-03-04T00:14:30.518Z,1.50
2023-03-04T00:16:32.481Z,1.40
2023-03-04T00:18:34.215Z,1.40
2023-03-04T00:20:35.956Z,1.60
2023-03-04T00:22:40.747Z,1.40
2023-03-04T00:24:42.489Z,1.60
2023-03-04T00:26:44.262Z,1.50
2023-03-04T00:28:46.064Z,1.50
2023-03-04T00:30:49.348Z,1.40
2023-03-04T00:32:51.089Z,1.50
2023-03-04T00:34:53.447Z,1.50
2023-03-04T00:37:01.167Z,1.50
2023-03-04T00:39:02.912Z,1.50
2023-03-04T00:41:07.121Z,1.50
2023-03-04T00:43:14.201Z,1.40
2023-03-04T00:45:19.073Z,1.40
2023-03-04T00:47:23.166Z,1.30
2023-03-04T00:49:25.018Z,1.30
2023-03-04T00:51:26.857Z,1.30
2023-03-04T00:53:29.295Z,1.20
2023-03-04T00:55:31.261Z,1.20
2023-03-04T00:57:33.290Z,1.30
2023-03-04T00:59:35.077Z,1.20
2023-03-04T01:01:36.848Z,1.10
2023-03-04T01:03:41.446Z,1.10
2023-03-04T01:05:43.264Z,1.10
2023-03-04T01:07:45.104Z,1.00
2023-03-04T01:09:46.843Z,1.00
2023-03-04T01:11:48.634Z,1.00
2023-03-04T01:13:50.461Z,1.00
2023-03-04T01:15:52.254Z,1.10
2023-03-04T01:17:54.295Z,1.00
2023-03-04T01:19:56.042Z,1.00
2023-03-04T01:21:57.911Z,0.90
2023-03-04T01:23:59.685Z,0.80
2023-03-04T01:26:01.484Z,0.90
2023-03-04T01:28:03.284Z,0.90
2023-03-04T01:30:05.764Z,0.90
2023-03-04T01:32:07.688Z,0.90
2023-03-04T01:34:10.002Z,1.00
2023-03-04T01:36:11.876Z,1.00
2023-03-04T01:38:14.385Z,0.90
2023-03-04T01:40:16.246Z,0.80
2023-03-04T01:42:19.909Z,0.90
2023-03-04T01:44:21.853Z,0.80
2023-03-04T01:46:24.218Z,0.90
2023-03-04T01:48:28.916Z,0.90
2023-03-04T01:50:32.579Z,0.80
2023-03-04T01:52:34.331Z,0.80
2023-03-04T01:54:36.120Z,0.80
2023-03-04T01:56:38.871Z,0.80
2023-03-04T01:58:40.620Z,0.90
2023-03-04T02:00:42.503Z,0.80
2023-03-04T02:02:44.350Z,0.80
2023-03-04T02:04:46.106Z,0.80
2023-03-04T02:06:49.158Z,0.80
2023-03-04T02:08:50.891Z,0.70
2023-03-04T02:10:52.998Z,0.70
2023-03-04T02:12:54.789Z,0.70
2023-03-04T02:14:56.549Z,0.70
2023-03-04T02:16:58.390Z,0.60
2023-03-04T02:19:00.640Z,0.60
2023-03-04T02:21:08.488Z,0.60
2023-03-04T02:23:25.489Z,0.60
2023-03-04T02:25:33.319Z,0.60
2023-03-04T02:27:35.077Z,0.60
2023-03-04T02:29:36.834Z,0.70
2023-03-04T02:31:40.063Z,0.60
2023-03-04T02:33:41.789Z,0.70
2023-03-04T02:35:43.604Z,0.60
2023-03-04T02:37:45.527Z,0.70
2023-03-04T02:39:48.584Z,0.60
2023-03-04T02:41:51.479Z,0.60
2023-03-04T02:43:54.636Z,0.50
2023-03-04T02:45:56.333Z,0.50
2023-03-04T02:47:58.058Z,0.50
2023-03-04T02:49:59.916Z,0.40
2023-03-04T02:52:03.107Z,0.40
2023-03-04T02:54:05.166Z,0.30
2023-03-04T02:56:07.162Z,0.30
2023-03-04T02:58:09.293Z,0.30
2023-03-04T03:00:11.387Z,0.20
2023-03-04T03:02:13.127Z,0.30
2023-03-04T03:04:15.068Z,0.20
2023-03-04T03:06:16.792Z,0.20
2023-03-04T03:08:18.655Z,0.10
2023-03-04T03:10:20.420Z,0.10
2023-03-04T03:12:22.146Z,0.10
2023-03-04T03:14:23.898Z,0.10
2023-03-04T03:16:25.730Z,0.10
2023-03-04T03:18:27.460Z,0.00
2023-03-04T03:20:29.258Z,0.00
2023-03-04T03:22:31.077Z,0.00
2023-03-04T03:24:32.858Z,0.10
2023-03-04T03:26:34.680Z,0.00
2023-03-04T03:28:36.421Z,0.00
2023-03-04T03:30:38.126Z,0.00
2023-03-04T03:32:39.881Z,0.00
2023-03-04T03:34:41.605Z,-0.10
2023-03-04T03:36:43.472Z,-0.10
2023-03-04T03:38:45.258Z,-0.10
2023-03-04T03:40:46.978Z,-0.20
2023-03-04T03:42:48.774Z,-0.30
2023-03-04T03:44:50.746Z,-0.30
2023-03-04T03:46:52.465Z,-0.30
2023-03-04T03:48:54.292Z,-0.30
2023-03-04T03:50:56.090Z,-0.20
2023-03-04T03:52:57.801Z,-0.20
2023-03-04T03:55:02.061Z,-0.20
2023-03-04T03:57:03.956Z,-0.30
2023-03-04T03:59:05.688Z,-0.30
2023-03-04T04:01:07.487Z,-0.30
2023-03-04T04:03:11.543Z,-0.30
2023-03-04T04:05:13.518Z,-0.40
2023-03-04T04:07:15.320Z,-0.50
2023-03-04T04:09:17.152Z,-0.60
2023-03-04T04:11:18.904Z,-0.50
2023-03-04T04:13:20.666Z,-0.40
2023-03-04T04:15:22.461Z,-0.50
2023-03-04T04:17:24.276Z,-0.50
2023-03-04T04:19:26.052Z,-0.50
2023-03-04T04:21:27.877Z,-0.60
2023-03-04T04:23:29.720Z,-0.50
2023-03-04T04:25:31.903Z,-0.60
2023-03-04T04:27:33.717Z,-0.60
2023-03-04T04:29:35.459Z,-0.60
2023-03-04T04:31:37.168Z,-0.50
2023-03-04T04:33:38.951Z,-0.50
2023-03-04T04:35:40.705Z,-0.60
2023-03-04T04:37:42.486Z,-0.70
2023-03-04T04:39:44.255Z,-0.70
2023-03-04T04:41:46.380Z,-0.70
2023-03-04T04:43:48.135Z,-0.60
2023-03-04T04:45:49.933Z,-0.60
2023-03-04T04:47:52.464Z,-0.60
2023-03-04T04:49:54.325Z,-0.50
2023-03-04T04:51:56.060Z,-0.40
2023-03-04T04:53:58.601Z,-0.40
2023-03-04T04:56:00.551Z,-0.40
2023-03-04T04:58:02.352Z,-0.40
2023-03-04T05:00:08.116Z,-0.30
2023-03-04T05:02:09.922Z,-0.30
2023-03-04T05:04:11.722Z,-0.30
2023-03-04T05:06:13.466Z,-0.30
2023-03-04T05:08:15.286Z,-0.50
2023-03-04T05:10:17.243Z,-0.40
2023-03-04T05:12:18.955Z,-0.30
2023-03-04T05:14:20.755Z,-0.10
2023-03-04T05:16:22.448Z,-0.30
2023-03-04T05:18:25.364Z,-0.30
2023-03-04T05:20:27.870Z,-0.40
2023-03-04T05:22:29.731Z,-0.40
2023-03-04T05:24:31.528Z,-0.50
2023-03-04T05:26:33.319Z,-0.40
2023-03-04T05:28:35.330Z,-0.40
2023-03-04T05:30:37.051Z,-0.30
2023-03-04T05:32:38.847Z,-0.20
2023-03-04T05:34:40.657Z,0.00
2023-03-04T05:36:42.413Z,-0.10
2023-03-04T05:38:44.167Z,-0.10
2023-03-04T05:40:46.826Z,-0.10
2023-03-04T05:42:48.542Z,-0.10
2023-03-04T05:44:50.265Z,0.00
2023-03-04T05:46:52.051Z,0.10
2023-03-04T05:48:54.487Z,0.20
2023-03-04T05:50:57.039Z,0.10
2023-03-04T05:52:58.907Z,0.10
2023-03-04T05:55:00.660Z,0.20
2023-03-04T05:57:02.593Z,0.30
2023-03-04T05:59:04.371Z,0.30
2023-03-04T06:01:06.389Z,0.30
2023-03-04T06:03:11.592Z,0.60
2023-03-04T06:05:14.490Z,0.50
2023-03-04T06:07:16.207Z,0.40
2023-03-04T06:09:18.074Z,0.50
2023-03-04T06:11:19.904Z,0.60
2023-03-04T06:13:23.077Z,0.70
2023-03-04T06:15:24.848Z,0.50
2023-03-04T06:17:26.628Z,0.70
2023-03-04T06:19:28.348Z,0.50
2023-03-04T06:21:30.159Z,0.70
2023-03-04T06:23:31.951Z,0.70
2023-03-04T06:25:33.727Z,0.60
2023-03-04T06:27:35.480Z,0.60
2023-03-04T06:29:37.260Z,0.60
2023-03-04T06:31:41.829Z,0.60
2023-03-04T06:33:43.744Z,0.90
2023-03-04T06:35:45.511Z,1.20
2023-03-04T06:37:47.345Z,1.10
2023-03-04T06:39:49.119Z,1.10
2023-03-04T06:41:50.915Z,1.30
2023-03-04T06:43:54.285Z,1.20
2023-03-04T06:45:56.054Z,1.30
2023-03-04T06:47:57.843Z,1.30
2023-03-04T06:49:59.587Z,1.50
2023-03-04T06:52:01.365Z,1.10
2023-03-04T06:54:03.283Z,0.80
2023-03-04T06:56:05.467Z,0.90
2023-03-04T06:58:07.292Z,0.80
2023-03-04T07:00:09.441Z,0.80
2023-03-04T07:02:12.386Z,0.90
2023-03-04T07:04:14.762Z,0.90
2023-03-04T07:06:17.605Z,1.10
2023-03-04T07:08:21.675Z,1.00
2023-03-04T07:10:23.810Z,1.10
2023-03-04T07:12:26.135Z,1.40
2023-03-04T07:14:28.109Z,1.50
2023-03-04T07:16:30.137Z,1.90
2023-03-04T07:18:31.984Z,1.90
2023-03-04T07:20:33.754Z,1.80
2023-03-04T07:22:35.459Z,2.30
2023-03-04T07:24:37.259Z,2.20
2023-03-04T07:26:39.279Z,2.30
2023-03-04T07:28:42.729Z,2.60
2023-03-04T07:30:44.890Z,2.70
2023-03-04T07:32:46.665Z,2.90
2023-03-04T07:34:48.445Z,3.10
2023-03-04T07:36:50.244Z,3.40
2023-03-04T07:38:54.730Z,3.70
2023-03-04T07:40:57.312Z,3.50
2023-03-04T07:42:59.241Z,3.30
2023-03-04T07:45:01.894Z,3.30
2023-03-04T07:47:03.687Z,3.20
2023-03-04T07:49:05.479Z,3.50
2023-03-04T07:51:11.186Z,3.30
2023-03-04T07:53:12.927Z,3.60
2023-03-04T07:55:15.914Z,3.70
2023-03-04T07:57:17.804Z,3.30
2023-03-04T07:59:19.527Z,3.00
2023-03-04T08:01:23.067Z,3.80
2023-03-04T08:03:24.880Z,3.50
2023-03-04T08:05:26.609Z,3.80
2023-03-04T08:07:28.370Z,4.20
2023-03-04T08:09:31.413Z,4.10
2023-03-04T08:11:34.110Z,3.80
2023-03-04T08:13:36.006Z,3.70
2023-03-04T08:15:41.234Z,3.40
2023-03-04T08:17:42.977Z,3.70
2023-03-04T08:19:44.853Z,3.50
2023-03-04T08:21:46.567Z,3.70
2023-03-04T08:23:48.668Z,3.80
2023-03-04T08:25:50.490Z,4.40
2023-03-04T08:27:52.222Z,4.30
2023-03-04T08:29:54.009Z,4.30
2023-03-04T08:31:56.158Z,4.70
2023-03-04T08:33:58.089Z,5.00
2023-03-04T08:36:00.133Z,5.00
2023-03-04T08:38:02.594Z,5.20
2023-03-04T08:40:04.659Z,5.20
2023-03-04T08:42:06.439Z,5.20
2023-03-04T08:44:11.157Z,5.00
2023-03-04T08:46:12.989Z,5.20
2023-03-04T08:48:14.868Z,4.60
2023-03-04T08:50:16.797Z,4.30
2023-03-04T08:52:18.567Z,4.70
2023-03-04T08:54:20.335Z,5.00
2023-03-04T08:56:22.258Z,4.60
2023-03-04T08:58:24.005Z,4.60
2023-03-04T09:00:25.818Z,4.60
2023-03-04T09:02:27.574Z,4.90
2023-03-04T09:04:29.318Z,4.90
2023-03-04T09:06:31.087Z,5.10
2023-03-04T09:08:33.085Z,5.00
2023-03-04T09:10:34.796Z,5.10
2023-03-04T09:12:36.538Z,5.20
2023-03-04T09:14:38.344Z,5.30
2023-03-04T09:16:40.094Z,5.30
2023-03-04T09:18:42.241Z,4.90
2023-03-04T09:20:44.458Z,5.00
2023-03-04T09:22:46.213Z,4.80
2023-03-04T09:24:47.961Z,4.80
2023-03-04T09:26:53.355Z,5.30
2023-03-04T09:28:56.255Z,5.10
2023-03-04T09:30:58.044Z,5.50
2023-03-04T09:32:59.870Z,5.30
2023-03-04T09:35:01.614Z,5.20
2023-03-04T09:37:03.402Z,5.50
2023-03-04T09:39:05.392Z,5.70
2023-03-04T09:41:14.003Z,5.50
2023-03-04T09:43:29.477Z,5.50
2023-03-04T09:45:35.967Z,5.50
2023-03-04T09:47:38.367Z,5.80
2023-03-04T09:49:41.759Z,6.00
2023-03-04T09:51:56.877Z,6.10
2023-03-04T09:54:17.445Z,6.00
2023-03-04T09:56:19.651Z,6.00
2023-03-04T09:58:44.769Z,6.10
2023-03-04T10:00:58.237Z,6.40
2023-03-04T10:03:05.340Z,6.50
2023-03-04T10:05:07.728Z,6.30
2023-03-04T10:07:15.880Z,6.40
2023-03-04T10:09:20.370Z,6.20
2023-03-04T10:11:27.558Z,6.30
2023-03-04T10:13:33.760Z,6.30
2023-03-04T10:15:38.100Z,6.80
2023-03-04T10:17:44.558Z,6.50
2023-03-04T10:19:52.380Z,6.60
2023-03-04T10:21:55.235Z,7.00
2023-03-04T10:23:59.632Z,7.20
2023-03-04T10:26:10.524Z,7.30
2023-03-04T10:28:16.742Z,7.30
2023-03-04T10:30:21.318Z,7.10
2023-03-04T10:32:23.269Z,6.90
2023-03-04T10:34:25.081Z,6.80
2023-03-04T10:36:29.604Z,6.90
2023-03-04T10:38:39.887Z,7.20
2023-03-04T10:40:42.000Z,7.20
2023-03-04T10:42:43.923Z,6.90
2023-03-04T10:44:59.336Z,7.00
2023-03-04T10:47:01.334Z,7.20
2023-03-04T10:49:03.460Z,6.90
2023-03-04T10:51:13.559Z,7.20
2023-03-04T10:53:28.489Z,7.60
2023-03-04T10:55:42.179Z,7.50
2023-03-04T10:57:45.049Z,7.70
2023-03-04T10:59:55.154Z,7.70
2023-03-04T11:01:57.270Z,7.60
2023-03-04T11:03:59.016Z,7.50
2023-03-04T11:06:05.239Z,7.60
2023-03-04T11:08:16.749Z,7.80
2023-03-04T11:10:21.780Z,7.50
2023-03-04T11:12:32.797Z,7.30
2023-03-04T11:14:41.455Z,7.60
2023-03-04T11:16:51.992Z,7.60
2023-03-04T11:18:55.432Z,7.70
2023-03-04T11:20:58.767Z,7.90
2023-03-04T11:23:11.361Z,8.10
2023-03-04T11:25:31.472Z,8.20
2023-03-04T11:27:36.129Z,8.10
2023-03-04T11:29:48.727Z,8.00
2023-03-04T11:31:50.475Z,8.10
2023-03-04T11:34:02.747Z,7.90
2023-03-04T11:36:16.655Z,8.20
2023-03-04T11:38:20.631Z,8.80
2023-03-04T11:40:34.055Z,8.20
2023-03-04T11:42:38.884Z,8.20
2023-03-04T11:44:41.622Z,8.00
2023-03-04T11:46:46.419Z,8.40
2023-03-04T11:48:52.685Z,8.40
2023-03-04T11:50:58.092Z,8.30
2023-03-04T11:53:16.410Z,8.30
2023-03-04T11:55:24.282Z,8.30
2023-03-04T11:57:35.437Z,8.20
2023-03-04T11:59:43.313Z,8.20
2023-03-04T12:01:55.306Z,8.10
2023-03-04T12:04:06.152Z,8.40
2023-03-04T12:06:22.635Z,8.10
2023-03-04T12:08:27.127Z,8.50
2023-03-04T12:10:29.125Z,8.60
2023-03-04T12:12:39.465Z,8.40
2023-03-04T12:14:41.556Z,8.40
2023-03-04T12:16:43.251Z,8.60
2023-03-04T12:18:53.818Z,8.70
2023-03-04T12:21:01.661Z,8.30
2023-03-04T12:23:09.543Z,8.50
2023-03-04T12:25:16.684Z,8.70
2023-03-04T12:27:20.225Z,9.00
2023-03-04T12:29:37.902Z,8.90
2023-03-04T12:31:41.759Z,9.10
2023-03-04T12:33:49.819Z,9.10
2023-03-04T12:36:04.100Z,9.00
2023-03-04T12:38:24.047Z,8.70
2023-03-04T12:40:44.349Z,8.90
2023-03-04T12:43:04.833Z,9.00
2023-03-04T12:45:09.786Z,9.00
2023-03-04T12:47:14.584Z,8.70
2023-03-04T12:49:28.631Z,9.00
2023-03-04T12:51:50.650Z,9.30
2023-03-04T12:54:10.801Z,9.10
2023-03-04T12:56:22.359Z,9.20
2023-03-04T12:58:25.940Z,9.30
2023-03-04T13:00:46.123Z,9.50
2023-03-04T13:02:57.099Z,9.50
2023-03-04T13:05:04.975Z,9.40
2023-03-04T13:07:30.292Z,9.40
2023-03-04T13:09:33.389Z,9.50
2023-03-04T13:11:43.752Z,9.40
2023-03-04T13:14:00.692Z,9.40
2023-03-04T13:16:03.847Z,9.30
2023-03-04T13:18:24.228Z,9.60
2023-03-04T13:20:32.011Z,9.30
2023-03-04T13:22:45.197Z,9.60
2023-03-04T13:24:52.840Z,9.70
2023-03-04T13:26:54.949Z,9.60
2023-03-04T13:29:09.252Z,9.30
2023-03-04T13:31:11.113Z,9.30
2023-03-04T13:33:13.635Z,9.40
2023-03-04T13:35:33.983Z,9.40
2023-03-04T13:37:36.724Z,9.40
2023-03-04T13:39:38.472Z,9.40
2023-03-04T13:41:47.385Z,9.30
2023-03-04T13:43:49.142Z,9.40
2023-03-04T13:45:50.902Z,9.30
2023-03-04T13:47:52.704Z,9.40
2023-03-04T13:50:14.418Z,9.10
2023-03-04T13:52:34.850Z,9.10
2023-03-04T13:54:36.987Z,9.10
2023-03-04T13:56:38.763Z,9.10
2023-03-04T13:58:41.349Z,9.20
2023-03-04T14:00:50.813Z,9.10
2023-03-04T14:02:52.663Z,9.10
2023-03-04T14:04:54.411Z,9.00
2023-03-04T14:07:00.422Z,9.10
2023-03-04T14:09:12.513Z,9.10
2023-03-04T14:11:34.738Z,9.00
2023-03-04T14:13:37.582Z,9.00
2023-03-04T14:15:39.370Z,9.00
2023-03-04T14:17:45.415Z,9.00
2023-03-04T14:19:47.754Z,9.00
2023-03-04T14:21:49.568Z,9.00
2023-03-04T14:24:01.709Z,8.90
2023-03-04T14:26:04.379Z,8.90
2023-03-04T14:28:14.324Z,9.00
2023-03-04T14:30:40.841Z,9.00
2023-03-04T14:32:44.854Z,9.10
2023-03-04T14:34:49.915Z,9.60
2023-03-04T14:36:51.682Z,9.80
2023-03-04T14:38:54.644Z,9.90
2023-03-04T14:41:02.341Z,9.80
2023-03-04T14:43:11.796Z,10.30
2023-03-04T14:45:16.443Z,10.10
2023-03-04T14:47:20.941Z,9.90
2023-03-04T14:49:22.873Z,10.00
2023-03-04T14:51:38.932Z,9.90
2023-03-04T14:53:52.961Z,10.00
2023-03-04T14:55:56.518Z,9.80
2023-03-04T14:58:08.813Z,10.00
2023-03-04T15:00:16.695Z,9.70
2023-03-04T15:02:25.228Z,9.70
2023-03-04T15:04:26.964Z,9.50
2023-03-04T15:06:30.257Z,9.50
2023-03-04T15:08:37.354Z,9.20
2023-03-04T15:10:39.119Z,9.10
2023-03-04T15:12:40.965Z,9.10
2023-03-04T15:14:42.709Z,8.90
2023-03-04T15:16:54.788Z,8.80
2023-03-04T15:19:02.266Z,8.60
2023-03-04T15:21:05.768Z,8.60
2023-03-04T15:23:07.599Z,8.60
2023-03-04T15:25:12.728Z,8.30
2023-03-04T15:27:14.528Z,8.10
2023-03-04T15:29:17.686Z,7.90
2023-03-04T15:31:21.069Z,7.80
2023-03-04T15:33:22.945Z,7.80
2023-03-04T15:35:25.465Z,7.80
2023-03-04T15:37:28.751Z,7.60
2023-03-04T15:39:30.517Z,7.60
2023-03-04T15:41:32.235Z,7.40
2023-03-04T15:43:34.007Z,7.40
2023-03-04T15:45:37.927Z,7.30
2023-03-04T15:47:39.674Z,7.30
2023-03-04T15:49:42.553Z,7.20
2023-03-04T15:51:44.286Z,7.10
2023-03-04T15:53:48.378Z,7.00
2023-03-04T15:55:50.162Z,7.00
2023-03-04T15:57:54.243Z,6.90
2023-03-04T15:59:56.015Z,6.90
2023-03-04T16:01:57.816Z,6.70
2023-03-04T16:03:59.590Z,6.60
2023-03-04T16:06:01.373Z,6.70
2023-03-04T16:08:03.193Z,6.70
2023-03-04T16:10:07.668Z,6.60
2023-03-04T16:12:11.496Z,6.60
2023-03-04T16:14:14.619Z,6.50
2023-03-04T16:16:16.744Z,6.50
2023-03-04T16:18:18.789Z,6.60
2023-03-04T16:20:22.252Z,6.60
2023-03-04T16:22:25.713Z,6.50
2023-03-04T16:24:29.131Z,6.50
2023-03-04T16:26:31.355Z,6.40
2023-03-04T16:28:33.074Z,6.30
2023-03-04T16:30:34.850Z,6.20
2023-03-04T16:32:36.680Z,6.10
2023-03-04T16:34:38.455Z,6.10
2023-03-04T16:36:40.299Z,6.20
2023-03-04T16:38:42.385Z,6.10
2023-03-04T16:40:44.217Z,6.10
2023-03-04T16:42:46.098Z,6.10
2023-03-04T16:44:51.294Z,5.90
2023-03-04T16:46:53.049Z,5.90
2023-03-04T16:48:55.002Z,5.80
2023-03-04T16:50:59.380Z,5.80
2023-03-04T16:53:01.139Z,5.70
2023-03-04T16:55:02.958Z,5.70
2023-03-04T16:57:04.942Z,5.70
2023-03-04T16:59:06.734Z,5.70
2023-03-04T17:01:14.430Z,5.70
2023-03-04T17:03:16.412Z,5.80
2023-03-04T17:05:19.396Z,5.80
2023-03-04T17:07:21.183Z,5.60
2023-03-04T17:09:22.959Z,5.40
2023-03-04T17:11:24.728Z,5.30
2023-03-04T17:13:26.536Z,5.10
2023-03-04T17:15:28.309Z,5.10
2023-03-04T17:17:30.629Z,5.00
2023-03-04T17:19:32.660Z,4.90
2023-03-04T17:21:34.427Z,4.90
2023-03-04T17:23:36.568Z,4.80
2023-03-04T17:25:38.381Z,5.00
2023-03-04T17:27:40.547Z,4.90
2023-03-04T17:29:42.609Z,4.90
2023-03-04T17:31:44.448Z,4.70
2023-03-04T17:33:46.632Z,4.70
2023-03-04T17:35:48.553Z,4.50
2023-03-04T17:37:50.744Z,4.50
2023-03-04T17:39:52.613Z,4.40
2023-03-04T17:41:54.498Z,4.30
2023-03-04T17:43:57.055Z,4.30
2023-03-04T17:46:07.157Z,4.20
2023-03-04T17:48:15.025Z,4.30
2023-03-04T17:50:17.012Z,4.30
2023-03-04T17:52:19.293Z,4.50
2023-03-04T17:54:21.120Z,4.10
2023-03-04T17:56:23.804Z,4.00
2023-03-04T17:58:25.981Z,3.80
2023-03-04T18:00:27.809Z,3.80
2023-03-04T18:02:29.742Z,3.70
2023-03-04T18:04:32.049Z,3.80
2023-03-04T18:06:33.838Z,3.90
2023-03-04T18:08:35.588Z,3.80
2023-03-04T18:10:37.411Z,3.90
2023-03-04T18:12:39.143Z,4.10
2023-03-04T18:14:40.923Z,4.10
2023-03-04T18:16:42.800Z,4.00
2023-03-04T18:18:45.879Z,4.00
2023-03-04T18:20:48.016Z,4.10
2023-03-04T18:22:49.825Z,4.30
2023-03-04T18:24:51.563Z,4.60
2023-03-04T18:26:54.566Z,4.80
2023-03-04T18:28:56.799Z,4.70
2023-03-04T18:30:58.701Z,4.80
2023-03-04T18:33:02.142Z,4.90
2023-03-04T18:35:05.247Z,4.80
2023-03-04T18:37:07.051Z,4.70
2023-03-04T18:39:09.445Z,4.60
2023-03-04T18:41:13.091Z,4.20
2023-03-04T18:43:14.925Z,3.90
2023-03-04T18:45:17.996Z,3.70
2023-03-04T18:47:20.090Z,3.60
2023-03-04T18:49:22.043Z,3.40
2023-03-04T18:51:23.897Z,3.40
2023-03-04T18:53:27.200Z,3.30
2023-03-04T18:55:29.214Z,3.30
2023-03-04T18:57:31.276Z,3.20
2023-03-04T18:59:37.187Z,3.20
2023-03-04T19:01:39.074Z,3.20
2023-03-04T19:03:41.472Z,3.20
2023-03-04T19:05:43.979Z,3.20
2023-03-04T19:07:45.870Z,3.20
2023-03-04T19:09:47.616Z,3.20
2023-03-04T19:11:49.428Z,3.20
2023-03-04T19:13:51.778Z,3.20
2023-03-04T19:15:54.162Z,3.20
2023-03-04T19:17:56.041Z,3.30
2023-03-04T19:19:57.788Z,3.30
2023-03-04T19:21:59.579Z,3.40
2023-03-04T19:24:01.380Z,3.40
2023-03-04T19:26:05.383Z,3.40
2023-03-04T19:28:07.262Z,3.40
2023-03-04T19:30:09.315Z,3.30
2023-03-04T19:32:11.058Z,3.30
2023-03-04T19:34:12.920Z,3.30
2023-03-04T19:36:14.679Z,3.40
2023-03-04T19:38:16.429Z,3.30
2023-03-04T19:40:18.309Z,3.30
2023-03-04T19:42:20.181Z,3.30
2023-03-04T19:44:21.938Z,3.30
2023-03-04T19:46:23.794Z,3.30
2023-03-04T19:48:25.586Z,3.30
2023-03-04T19:50:27.580Z,3.30
2023-03-04T19:52:29.450Z,3.30
2023-03-04T19:54:31.333Z,3.30
2023-03-04T19:56:33.157Z,3.30
2023-03-04T19:58:34.929Z,3.30
2023-03-04T20:00:36.745Z,3.30
2023-03-04T20:02:38.757Z,3.40
2023-03-04T20:04:42.571Z,3.40
2023-03-04T20:06:45.505Z,3.40
2023-03-04T20:08:47.291Z,3.40
2023-03-04T20:10:49.031Z,3.40
2023-03-04T20:12:52.803Z,3.40
2023-03-04T20:14:54.585Z,3.30
2023-03-04T20:17:03.385Z,3.40
2023-03-04T20:19:05.212Z,3.40
2023-03-04T20:21:07.415Z,3.30
2023-03-04T20:23:12.088Z,3.30
2023-03-04T20:25:13.971Z,3.30
2023-03-04T20:27:15.861Z,3.20
2023-03-04T20:29:18.102Z,3.30
2023-03-04T20:31:19.961Z,3.20
2023-03-04T20:33:21.749Z,3.10
2023-03-04T20:35:23.517Z,3.10
2023-03-04T20:37:25.360Z,3.00
2023-03-04T20:39:29.610Z,3.00
2023-03-04T20:41:31.930Z,3.00
2023-03-04T20:43:33.776Z,3.00
2023-03-04T20:45:38.410Z,3.00
2023-03-04T20:47:40.194Z,3.00
2023-03-04T20:49:41.984Z,3.00
2023-03-04T20:51:43.743Z,2.90
2023-03-04T20:53:45.472Z,2.90
2023-03-04T20:55:47.219Z,2.90
2023-03-04T20:57:49.579Z,2.90
2023-03-04T20:59:51.349Z,2.90
2023-03-04T21:01:53.671Z,2.90
2023-03-04T21:03:55.502Z,2.80
2023-03-04T21:06:02.441Z,2.80
2023-03-04T21:08:04.360Z,2.80
2023-03-04T21:10:06.344Z,2.80
2023-03-04T21:12:08.124Z,2.90
2023-03-04T21:14:35.953Z,2.80
2023-03-04T21:16:37.755Z,2.70
2023-03-04T21:18:39.735Z,2.60
2023-03-04T21:20:41.557Z,2.60
2023-03-04T21:22:43.328Z,2.60
2023-03-04T21:24:45.669Z,2.60
2023-03-04T21:26:48.129Z,2.60
2023-03-04T21:28:50.972Z,2.60
2023-03-04T21:30:52.874Z,2.60
2023-03-04T21:32:55.255Z,2.60
2023-03-04T21:34:57.118Z,2.50
2023-03-04T21:36:59.187Z,2.40
2023-03-04T21:39:00.950Z,2.30
2023-03-04T21:41:02.835Z,2.50
2023-03-04T21:43:06.925Z,2.50
2023-03-04T21:45:10.306Z,2.60
2023-03-04T21:47:12.062Z,2.60
2023-03-04T21:49:14.443Z,2.60
2023-03-04T21:51:16.987Z,2.70
2023-03-04T21:53:21.738Z,2.60
2023-03-04T21:55:23.554Z,2.70
2023-03-04T21:57:25.354Z,2.60
2023-03-04T21:59:27.094Z,2.60
2023-03-04T22:01:28.973Z,2.50
2023-03-04T22:03:30.722Z,2.50
2023-03-04T22:05:32.731Z,2.50
2023-03-04T22:07:34.848Z,2.50
2023-03-04T22:09:36.686Z,2.40
2023-03-04T22:11:38.425Z,2.40
2023-03-04T22:13:40.900Z,2.30
2023-03-04T22:15:44.005Z,2.20
2023-03-04T22:17:45.989Z,2.20
2023-03-04T22:19:47.737Z,2.20
2023-03-04T22:21:49.586Z,2.10
2023-03-04T22:23:51.329Z,2.10
2023-03-04T22:25:53.109Z,2.00
2023-03-04T22:27:55.304Z,2.10
2023-03-04T22:29:57.079Z,2.00
2023-03-04T22:31:58.972Z,2.00
2023-03-04T22:34:02.400Z,2.00
2023-03-04T22:36:05.006Z,2.00
2023-03-04T22:38:06.747Z,1.90
2023-03-04T22:40:11.340Z,1.90
2023-03-04T22:42:13.238Z,1.80
2023-03-04T22:44:15.040Z,1.80
2023-03-04T22:46:16.860Z,1.80
2023-03-04T22:48:19.192Z,1.70
2023-03-04T22:50:21.389Z,1.70
2023-03-04T22:52:23.372Z,1.60
2023-03-04T22:54:27.272Z,1.70
2023-03-04T22:56:29.011Z,1.60
2023-03-04T22:58:30.837Z,1.60
2023-03-04T23:00:32.666Z,1.60
2023-03-04T23:02:34.587Z,1.60
2023-03-04T23:04:36.388Z,1.60
2023-03-04T23:06:38.190Z,1.60
2023-03-04T23:08:40.595Z,1.60
2023-03-04T23:10:42.390Z,1.50
2023-03-04T23:12:44.176Z,1.50
2023-03-04T23:14:45.952Z,1.50
2023-03-04T23:16:49.228Z,1.50
2023-03-04T23:18:51.180Z,1.50
2023-03-04T23:20:52.922Z,1.50
2023-03-04T23:22:54.697Z,1.50
2023-03-04T23:24:57.730Z,1.50
2023-03-04T23:26:59.469Z,1.50
2023-03-04T23:29:02.199Z,1.50
2023-03-04T23:31:05.990Z,1.50
2023-03-04T23:33:07.923Z,1.50
2023-03-04T23:35:10.114Z,1.50
2023-03-04T23:37:11.896Z,1.50
2023-03-04T23:39:14.287Z,1.40
2023-03-04T23:41:23.160Z,1.50
2023-03-04T23:43:27.154Z,1.50
2023-03-04T23:45:28.928Z,1.50
2023-03-04T23:47:30.777Z,1.50
2023-03-04T23:49:32.527Z,1.50
2023-03-04T23:51:34.838Z,1.40
2023-03-04T23:53:39.007Z,1.40
2023-03-04T23:55:41.473Z,1.40
2023-03-04T23:57:43.536Z,1.40
2023-03-04T23:59:45.302Z,1.40
